Latest Weather Observations for Bathurst Airport

IDN60801

Issued at 2:03 pm EDT Saturday 6 February 2016 (issued every 30 minutes, with the page automatically refreshed every 10 minutes)

About weather observations | Map of weather stations | Latest weather observations for NSW | Other Formats
Station Details ID: 063291 Name: BATHURST AIRPORT AWS Lat: -33.41 Lon: 149.65 Height: 744.5 m
Data from the previous 72 hours. | See also: Recent months at Bathurst Airport
Date/Time
EDT
Temp
°C
App
Temp
°C
Dew
Point
Rel
Hum
%
Delta-T
°C
Wind Press
QNH
hPa
Press
MSL
hPa
Rain
since 9 am
mm
Dir
 
Spd
km/h
Gust
km/h
Spd
kts
Gust
kts
06/02:00pm 21.7 19.1 13.1 58 5.1 ENE 19 24 10 13 1018.6 1015.0 0.0
06/01:30pm 21.3 18.9 12.7 58 5.0 ESE 17 24 9 13 1018.7 1015.1 0.0
06/01:00pm 21.9 19.5 12.5 55 5.5 ENE 17 26 9 14 1019.0 1015.3 0.0
06/12:30pm 22.2 18.0 12.5 54 5.7 ENE 26 39 14 21 1019.2 1015.6 0.0
06/12:00pm 21.2 18.5 12.9 59 4.9 E 19 26 10 14 1019.4 1015.8 0.0
06/11:30am 21.8 18.9 12.4 55 5.5 E 19 35 10 19 1019.4 1015.8 0.0
06/11:00am 20.9 18.9 12.6 59 4.8 E 15 35 8 19 1019.5 1015.9 0.0
06/10:30am 21.2 19.6 12.9 59 4.9 ENE 13 22 7 12 1019.5 1015.9 0.0
06/10:00am 21.0 18.9 12.4 58 5.0 E 15 26 8 14 1019.5 1015.9 0.0
06/09:30am 19.1 17.2 11.9 63 4.1 E 13 19 7 10 1019.4 1015.8 0.0
06/09:00am 17.0 14.9 11.1 68 3.3 SSE 13 19 7 10 1019.4 1015.8 0.0
06/08:30am 16.9 15.1 10.7 67 3.4 SE 11 17 6 9 1019.4 1015.8 0.0
06/08:00am 15.8 13.6 10.8 72 2.8 SE 13 19 7 10 1019.0 1015.3 0.0
06/07:30am 15.6 13.0 10.6 72 2.7 SE 15 20 8 11 1018.6 1015.0 0.0
06/07:00am 15.0 12.7 10.4 74 2.5 SSE 13 19 7 10 1018.4 1014.8 0.0
06/06:30am 14.8 12.1 10.4 75 2.4 SSE 15 20 8 11 1018.3 1014.7 0.0
06/06:00am 14.7 11.6 10.3 75 2.4 SE 17 26 9 14 1018.2 1014.6 0.0
06/05:30am 14.6 11.5 10.2 75 2.4 SE 17 26 9 14 1018.0 1014.4 0.0
06/05:00am 14.6 11.2 10.6 77 2.2 SE 19 28 10 15 1017.9 1014.2 0.0
06/04:30am 14.7 11.2 10.3 75 2.4 SE 19 28 10 15 1018.0 1014.4 0.0
06/04:00am 14.6 11.1 10.2 75 2.4 SE 19 32 10 17 1018.2 1014.6 0.0
06/03:30am 15.0 11.0 10.4 74 2.5 ESE 22 30 12 16 1018.1 1014.5 0.0
06/03:00am 15.3 12.1 11.3 77 2.2 ESE 19 30 10 16 1018.4 1014.8 0.0
06/02:30am 14.9 11.0 10.9 77 2.2 ESE 22 32 12 17 1018.4 1014.8 0.0
06/02:00am 14.7 11.2 10.3 75 2.4 ESE 19 30 10 16 1018.4 1014.8 0.0
06/01:30am 14.7 11.0 10.3 75 2.4 ESE 20 30 11 16 1018.7 1015.1 0.0
06/01:00am 14.7 11.1 9.9 73 2.6 ESE 19 32 10 17 1019.0 1015.3 0.0
06/12:30am 15.0 10.9 10.0 72 2.7 ESE 22 32 12 17 1019.4 1015.8 0.0
06/12:00am 15.3 11.6 10.1 71 2.8 ESE 20 30 11 16 1019.5 1015.9 0.0
 
Date/Time
EDT
Temp
°C
App
Temp
°C
Dew
Point
Rel
Hum
%
Delta-T
°C
Wind Press
QNH
hPa
Press
MSL
hPa
Rain
since 9 am
mm
Dir
 
Spd
km/h
Gust
km/h
Spd
kts
Gust
kts
05/11:30pm 15.5 12.4 10.3 71 2.8 ESE 17 22 9 12 1019.8 1016.2 0.0
05/11:00pm 15.1 12.7 10.1 72 2.7 ESE 13 20 7 11 1020.0 1016.4 0.0
05/10:30pm 15.3 12.5 10.1 71 2.8 ESE 15 26 8 14 1020.1 1016.5 0.0
05/10:00pm 15.0 12.4 9.4 69 3.0 ESE 13 17 7 9 1020.0 1016.4 0.0
05/09:30pm 14.7 12.3 8.6 67 3.2 ESE 11 13 6 7 1019.9 1016.3 0.0
05/09:00pm 15.8 11.9 8.8 63 3.7 ESE 19 26 10 14 1019.7 1016.1 0.0
05/08:30pm 16.4 11.5 8.6 60 4.1 ESE 24 37 13 20 1019.2 1015.6 0.0
05/08:00pm 17.1 12.7 8.8 58 4.4 ESE 22 35 12 19 1018.9 1015.2 0.0
05/07:30pm 18.2 13.3 8.5 53 5.2 ESE 24 39 13 21 1018.5 1014.9 0.0
05/07:00pm 18.1 12.2 7.5 50 5.6 E 28 41 15 22 1018.3 1014.7 0.0
05/06:46pm 19.2 13.5 8.5 50 5.8 E 28 46 15 25 1018.2 1014.6 0.0
05/06:30pm 18.7 12.9 8.1 50 5.7 E 28 43 15 23 1018.0 1014.4 0.0
05/06:00pm 20.2 14.2 8.8 48 6.2 ESE 30 43 16 23 1017.7 1014.0 0.0
05/05:30pm 20.8 15.6 8.8 46 6.6 ESE 26 35 14 19 1017.6 1013.9 0.0
05/05:00pm 21.3 15.1 9.2 46 6.7 E 32 44 17 24 1017.8 1014.1 0.0
05/04:30pm 21.4 14.7 8.0 42 7.2 ESE 33 46 18 25 1017.9 1014.2 0.0
05/04:22pm 21.5 15.9 8.7 44 7.0 ESE 28 46 15 25 1017.8 1014.1 0.0
05/04:00pm 21.3 14.9 8.6 44 6.9 ESE 32 46 17 25 1018.0 1014.4 0.0
05/03:30pm 22.0 17.0 9.5 45 7.0 ESE 26 39 14 21 1018.1 1014.5 0.0
05/03:00pm 21.4 15.6 9.6 47 6.6 ESE 30 46 16 25 1018.2 1014.6 0.0
05/02:56pm 21.1 15.7 9.4 47 6.5 ESE 28 46 15 25 1018.2 1014.6 0.0
05/02:30pm 20.9 15.7 8.9 46 6.6 E 26 37 14 20 1018.5 1014.9 0.0
05/02:00pm 22.0 17.0 10.8 49 6.4 ESE 28 39 15 21 1018.5 1014.9 0.0
05/01:30pm 21.4 15.6 10.9 51 6.0 ESE 32 48 17 26 1018.5 1014.9 0.0
05/01:07pm 20.8 14.9 10.3 51 5.9 ESE 32 50 17 27 1018.6 1015.0 0.0
05/01:00pm 19.9 13.7 9.5 51 5.7 ESE 32 43 17 23 1018.9 1015.2 0.0
05/12:32pm 20.5 15.0 10.6 53 5.6 ESE 30 54 16 29 1019.1 1015.4 0.0
05/12:30pm 20.5 15.0 10.6 53 5.6 ESE 30 44 16 24 1019.1 1015.4 0.0
05/12:00pm 19.8 14.5 9.7 52 5.6 ESE 28 43 15 23 1019.4 1015.8 0.0
05/11:30am 19.4 13.5 10.4 56 5.0 E 32 46 17 25 1019.5 1015.9 0.0
05/11:22am 19.3 14.6 10.6 57 4.9 ESE 26 46 14 25 1019.4 1015.8 0.0
05/11:00am 17.8 13.1 9.4 58 4.6 SE 24 33 13 18 1019.5 1015.9 0.0
05/10:30am 17.4 12.7 9.3 59 4.4 ESE 24 32 13 17 1019.5 1015.9 0.0
05/10:00am 16.6 11.2 9.5 63 3.8 ESE 28 37 15 20 1019.3 1015.7 0.0
05/09:30am 16.2 10.7 9.2 63 3.8 ESE 28 39 15 21 1019.0 1015.3 0.0
05/09:00am 16.7 12.5 9.9 64 3.7 ESE 22 33 12 18 1018.9 1015.2 0.0
05/08:30am 15.6 11.6 9.1 65 3.5 ESE 20 35 11 19 1018.6 1015.0 0.0
05/08:00am 16.1 12.1 9.1 63 3.7 ESE 20 35 11 19 1018.5 1014.9 0.0
05/07:30am 14.6 11.2 9.0 69 3.0 ESE 17 30 9 16 1018.0 1014.4 0.0
05/07:00am 13.8 10.7 8.8 72 2.6 SE 15 20 8 11 1017.6 1013.9 0.0
05/06:30am 13.3 9.7 8.2 71 2.6 SE 17 24 9 13 1017.0 1013.4 0.0
05/06:00am 13.5 9.2 7.7 68 3.0 SE 20 32 11 17 1016.7 1013.0 0.0
05/05:30am 13.3 9.1 7.5 68 3.0 SE 19 26 10 14 1016.6 1012.9 0.0
05/05:00am 13.2 9.5 8.1 71 2.6 SE 17 20 9 11 1016.5 1012.8 0.0
05/04:30am 13.6 9.5 8.0 69 2.9 SE 19 28 10 15 1016.3 1012.6 0.0
05/04:00am 13.9 10.3 8.3 69 2.9 SE 17 28 9 15 1016.4 1012.7 0.0
05/03:30am 14.1 11.3 8.7 70 2.8 SE 13 28 7 15 1016.4 1012.7 0.0
05/03:00am 12.8 10.6 9.3 79 1.8 SSE 11 13 6 7 1016.5 1012.8 0.0
05/02:30am 12.6 10.7 8.9 78 1.9 SSW 9 13 5 7 1016.9 1013.3 0.0
05/02:00am 14.4 10.4 9.0 70 2.9 SE 20 28 11 15 1017.0 1013.4 0.0
05/01:30am 14.6 10.0 9.6 72 2.7 SE 24 32 13 17 1017.1 1013.5 0.0
05/01:00am 14.4 10.1 9.4 72 2.7 SE 22 33 12 18 1017.3 1013.7 0.0
05/12:30am 14.4 10.7 9.4 72 2.7 SE 19 32 10 17 1017.6 1013.9 0.0
05/12:00am 14.4 10.8 8.4 67 3.1 SE 17 24 9 13 1017.6 1013.9 0.0
 
Date/Time
EDT
Temp
°C
App
Temp
°C
Dew
Point
Rel
Hum
%
Delta-T
°C
Wind Press
QNH
hPa
Press
MSL
hPa
Rain
since 9 am
mm
Dir
 
Spd
km/h
Gust
km/h
Spd
kts
Gust
kts
04/11:30pm 14.4 10.1 7.7 64 3.5 SE 20 30 11 16 1017.8 1014.1 0.0
04/11:00pm 14.5 10.5 8.2 66 3.3 SE 19 28 10 15 1017.9 1014.2 0.0
04/10:30pm 15.0 11.5 8.7 66 3.3 SE 17 28 9 15 1017.8 1014.1 0.0
04/10:00pm 15.5 12.6 9.8 69 3.1 SE 15 28 8 15 1017.6 1013.9 0.0
04/09:30pm 16.2 13.5 10.3 68 3.2 SE 15 24 8 13 1017.1 1013.5 0.0
04/09:00pm 16.2 12.7 10.1 67 3.3 SE 19 28 10 15 1016.7 1013.0 0.0
04/08:30pm 16.7 13.4 11.0 69 3.2 SE 19 28 10 15 1016.6 1012.9 0.0
04/08:00pm 16.8 12.6 11.1 69 3.2 SE 24 32 13 17 1016.2 1012.5 0.0
04/07:30pm 17.3 14.1 11.8 70 3.1 SE 20 30 11 16 1015.8 1012.2 0.0
04/07:00pm 18.1 14.5 11.7 66 3.6 SE 22 37 12 20 1015.5 1011.8 0.0
04/06:30pm 18.3 15.3 12.1 67 3.6 ESE 19 26 10 14 1015.2 1011.5 0.0
04/06:00pm 18.9 15.8 12.2 65 3.9 SE 20 30 11 16 1015.0 1011.3 0.0
04/05:30pm 19.8 16.7 12.1 61 4.4 ESE 20 28 11 15 1014.7 1011.0 0.0
04/05:00pm 19.3 16.4 12.8 66 3.8 SE 20 32 11 17 1014.8 1011.1 0.0
04/04:30pm 19.6 15.8 12.4 63 4.2 ESE 24 35 13 19 1014.7 1011.0 0.0
04/04:00pm 19.9 16.3 13.1 65 4.0 SE 24 35 13 19 1014.6 1010.9 0.0
04/03:30pm 20.1 16.0 12.6 62 4.4 ESE 26 35 14 19 1014.6 1010.9 0.0
04/03:00pm 20.4 16.8 13.1 63 4.3 SE 24 41 13 22 1014.9 1011.2 0.0
04/02:30pm 20.3 16.3 13.0 63 4.3 SE 26 37 14 20 1014.8 1011.1 0.0
04/02:00pm 20.3 15.9 13.0 63 4.3 SE 28 39 15 21 1014.9 1011.2 0.0
04/01:30pm 20.4 16.2 13.4 64 4.1 SE 28 44 15 24 1014.7 1011.0 0.0
04/01:00pm 20.5 16.1 13.0 62 4.4 SE 28 39 15 21 1014.7 1011.0 0.0
04/12:30pm 21.6 17.8 13.5 60 4.8 SE 26 41 14 22 1014.8 1011.1 0.0
04/12:00pm 20.7 17.2 13.4 63 4.3 SE 24 35 13 19 1014.8 1011.1 0.0
04/11:30am 20.6 16.7 13.3 63 4.3 SE 26 37 14 20 1014.7 1011.0 0.0
04/11:00am 20.8 17.4 13.7 64 4.2 SE 24 33 13 18 1014.7 1011.0 0.0
04/10:30am 19.6 15.9 13.8 69 3.4 ESE 26 41 14 22 1014.6 1010.9 0.0
04/10:15am 18.7 14.5 13.6 72 3.0 SE 28 41 15 22 1014.6 1010.9 0.0
04/10:00am 18.6 15.2 13.7 73 2.9 ESE 24 39 13 21 1014.4 1010.8 0.0
04/09:30am 17.9 14.6 14.0 78 2.3 SE 24 33 13 18 1014.2 1010.5 0.0
04/09:00am 17.6 13.9 13.9 79 2.2 SE 26 37 14 20 1013.9 1010.2 0.0
04/08:46am 17.5 14.1 13.8 79 2.2 SE 24 37 13 20 1013.9 1010.2 0.0
04/08:30am 17.3 14.4 14.0 81 1.9 SE 22 33 12 18 1013.6 1009.9 0.0
04/08:00am 17.4 15.4 13.9 80 2.1 SE 17 30 9 16 1013.2 1009.5 0.0
04/07:30am 17.4 15.6 14.5 83 1.7 SE 17 20 9 11 1012.4 1008.7 0.0
04/07:00am 16.9 15.5 14.5 86 1.4 SSE 15 20 8 11 1012.2 1008.5 0.0
04/06:30am 17.2 15.8 14.5 84 1.6 SE 15 22 8 12 1011.9 1008.1 0.0
04/06:00am 16.7 15.1 15.1 90 1.0 SSE 17 24 9 13 1011.8 1008.0 0.0
04/05:30am 17.1 15.8 14.7 86 1.4 SSE 15 20 8 11 1011.4 1007.7 0.0
04/05:00am 16.9 15.4 15.2 90 1.0 SSE 17 26 9 14 1010.8 1007.1 0.0
04/04:30am 17.0 15.2 15.5 91 0.9 SSE 19 24 10 13 1010.5 1006.7 0.0
04/04:00am 17.3 15.4 15.3 88 1.2 SSE 19 26 10 14 1010.6 1006.8 0.0
04/03:30am 18.1 16.3 14.4 79 2.2 SE 17 24 9 13 1010.3 1006.5 0.0
04/03:00am 18.1 16.0 14.8 81 2.0 SE 19 32 10 17 1010.3 1006.5 0.0
04/02:30am 19.0 16.6 14.5 75 2.7 ESE 20 30 11 16 1009.9 1006.2 0.0
04/02:00am 19.2 17.0 14.5 74 2.8 SE 19 24 10 13 1010.0 1006.3 0.0
04/01:30am 19.4 17.2 14.9 75 2.7 SE 20 33 11 18 1009.8 1006.1 0.0
04/01:00am 19.9 18.4 14.3 70 3.4 ESE 15 24 8 13 1009.7 1006.0 0.0
04/12:30am 19.9 18.3 13.8 68 3.6 ESE 15 19 8 10 1009.7 1006.0 0.0
04/12:00am 20.1 19.5 13.6 66 3.9 SE 9 17 5 9 1009.8 1006.1 0.0
 
Date/Time
EDT
Temp
°C
App
Temp
°C
Dew
Point
Rel
Hum
%
Delta-T
°C
Wind Press
QNH
hPa
Press
MSL
hPa
Rain
since 9 am
mm
Dir
 
Spd
km/h
Gust
km/h
Spd
kts
Gust
kts
03/11:30pm 19.6 17.8 13.3 67 3.7 ESE 15 28 8 15 1009.2 1005.4 0.0
03/11:00pm 20.4 18.2 13.4 64 4.2 ESE 17 28 9 15 1009.4 1005.6 0.0
03/10:30pm 20.7 17.7 13.6 64 4.2 SE 22 32 12 17 1008.9 1005.1 0.0
03/10:00pm 21.5 19.2 14.6 65 4.2 SE 20 28 11 15 1008.7 1005.0 0.0
03/09:30pm 22.0 18.9 14.4 62 4.6 ENE 24 32 13 17 1008.4 1004.7 0.0
03/09:00pm 22.9 23.2 16.0 65 4.3 ENE 9 17 5 9 1007.7 1003.9 0.0
03/08:30pm 23.9 22.3 15.1 58 5.4 SE 17 20 9 11 1006.9 1003.1 0.0
03/08:00pm 25.1 24.1 16.5 59 5.5 E 17 24 9 13 1006.1 1002.3 0.0
03/07:30pm 26.5 25.0 16.4 53 6.4 E 19 26 10 14 1005.3 1001.5 0.0
03/07:00pm 27.8 28.4 16.7 50 7.1 SE 9 15 5 8 1005.0 1001.2 0.0
03/06:30pm 28.7 29.3 16.9 48 7.6 WSW 9 15 5 8 1004.8 1001.0 0.0
03/06:00pm 28.3 28.3 17.2 51 7.2 SW 13 19 7 10 1004.6 1000.7 0.0
03/05:30pm 29.7 30.3 17.8 48 7.8 W 11 20 6 11 1004.3 1000.5 0.0
03/05:00pm 28.2 27.7 16.8 50 7.4 WNW 15 20 8 11 1004.4 1000.6 0.0
03/04:30pm 28.7 29.6 16.6 48 7.8 WSW 7 15 4 8 1004.4 1000.6 0.0
03/04:00pm 29.3 30.4 17.2 48 7.9 WSW 7 13 4 7 1004.7 1000.8 0.0
03/03:30pm 28.8 29.2 17.3 49 7.5 SSE 11 19 6 10 1004.8 1001.0 0.0
03/03:00pm 28.7 29.6 16.6 48 7.8 NNW 7 13 4 7 1005.0 1001.2 0.0
03/02:30pm 27.0 26.8 15.7 50 7.1 WSW 11 19 6 10 1005.3 1001.5 0.0

Other Formats:

Comma delimited format used in spreadsheet applications
http://www.bom.gov.au/fwo/IDN60801/IDN60801.94729.axf

JavaScript Object Notation format (JSON) in row-major order
http://www.bom.gov.au/fwo/IDN60801/IDN60801.94729.json